createdAt,value
2022-11-10T00:00:55.399Z,1.23
2022-11-10T00:04:00.798Z,0.80
2022-11-10T00:07:09.398Z,1.07
2022-11-10T00:10:15.230Z,0.70
2022-11-10T00:13:23.900Z,0.97
2022-11-10T00:16:29.040Z,0.90
2022-11-10T00:19:34.423Z,1.30
2022-11-10T00:22:40.274Z,0.97
2022-11-10T00:25:46.348Z,1.00
2022-11-10T00:28:52.199Z,0.90
2022-11-10T00:31:58.694Z,0.70
2022-11-10T00:35:04.375Z,1.50
2022-11-10T00:38:10.172Z,0.60
2022-11-10T00:41:15.415Z,0.97
2022-11-10T00:44:20.923Z,1.23
2022-11-10T00:47:26.567Z,0.63
2022-11-10T00:50:32.643Z,1.27
2022-11-10T00:53:38.591Z,1.13
2022-11-10T00:56:44.542Z,1.80
2022-11-10T00:59:49.899Z,1.60
2022-11-10T01:02:55.106Z,0.70
2022-11-10T01:06:00.556Z,2.10
2022-11-10T01:09:06.399Z,1.17
2022-11-10T01:12:11.903Z,0.60
2022-11-10T01:15:17.144Z,0.87
2022-11-10T01:18:22.848Z,3.13
2022-11-10T01:21:28.538Z,1.37
2022-11-10T01:24:34.397Z,1.03
2022-11-10T01:27:39.511Z,1.20
2022-11-10T01:30:45.197Z,0.97
2022-11-10T01:33:50.459Z,1.07
2022-11-10T01:36:55.992Z,0.67
2022-11-10T01:40:01.641Z,0.90
2022-11-10T01:43:15.600Z,1.13
2022-11-10T01:46:29.015Z,0.50
2022-11-10T01:49:37.367Z,0.60
2022-11-10T01:52:42.640Z,0.90
2022-11-10T01:55:30.188Z,0.83
2022-11-10T01:58:17.605Z,1.23
2022-11-10T02:01:23.348Z,0.70
2022-11-10T02:04:33.190Z,0.73
2022-11-10T02:07:40.397Z,0.70
2022-11-10T02:10:45.992Z,1.10
2022-11-10T02:13:51.912Z,0.80
2022-11-10T02:16:57.556Z,1.23
2022-11-10T02:20:03.376Z,1.00
2022-11-10T02:23:08.652Z,0.60
2022-11-10T02:26:14.048Z,0.87
2022-11-10T02:29:19.152Z,0.87
2022-11-10T02:32:24.888Z,1.20
2022-11-10T02:35:30.438Z,2.13
2022-11-10T02:38:35.722Z,0.80
2022-11-10T02:41:41.387Z,0.57
2022-11-10T02:44:47.035Z,0.97
2022-11-10T02:47:52.211Z,0.40
2022-11-10T02:50:58.416Z,0.73
2022-11-10T02:54:04.008Z,1.10
2022-11-10T02:57:09.330Z,0.87
2022-11-10T03:00:14.735Z,0.60
2022-11-10T03:03:22.398Z,1.03
2022-11-10T03:06:28.067Z,0.90
2022-11-10T03:09:33.910Z,0.73
2022-11-10T03:12:39.236Z,0.97
2022-11-10T03:15:45.346Z,1.53
2022-11-10T03:18:50.511Z,1.47
2022-11-10T03:21:55.915Z,0.87
2022-11-10T03:25:01.162Z,0.80
2022-11-10T03:28:06.668Z,0.83
2022-11-10T03:31:12.268Z,1.67
2022-11-10T03:34:18.019Z,0.43
2022-11-10T03:37:23.470Z,0.70
2022-11-10T03:40:29.696Z,0.47
2022-11-10T03:43:34.963Z,0.87
2022-11-10T03:46:43.360Z,0.60
2022-11-10T03:49:50.451Z,1.40
2022-11-10T03:52:58.257Z,0.73
2022-11-10T03:56:03.446Z,0.70
2022-11-10T03:59:08.738Z,0.50
2022-11-10T04:02:14.043Z,0.97
2022-11-10T04:05:17.887Z,1.07
2022-11-10T04:08:22.020Z,0.70
2022-11-10T04:11:27.440Z,0.70
2022-11-10T04:14:32.201Z,0.93
2022-11-10T04:17:37.564Z,0.63
2022-11-10T04:20:43.022Z,0.87
2022-11-10T04:23:51.476Z,0.70
2022-11-10T04:26:59.875Z,0.70
2022-11-10T04:30:05.736Z,1.43
2022-11-10T04:33:14.185Z,0.60
2022-11-10T04:36:19.937Z,0.40
2022-11-10T04:39:26.183Z,0.80
2022-11-10T04:42:31.611Z,0.43
2022-11-10T04:45:37.304Z,1.00
2022-11-10T04:48:43.632Z,0.87
2022-11-10T04:51:57.088Z,1.03
2022-11-10T04:55:02.527Z,0.93
2022-11-10T04:58:08.110Z,0.90
2022-11-10T05:01:13.389Z,0.80
2022-11-10T05:04:19.005Z,1.37
2022-11-10T05:07:24.574Z,1.00
2022-11-10T05:10:30.039Z,0.80
2022-11-10T05:13:35.418Z,0.83
2022-11-10T05:16:40.961Z,0.97
2022-11-10T05:19:46.507Z,1.10
2022-11-10T05:22:51.980Z,1.13
2022-11-10T05:26:00.219Z,1.30
2022-11-10T05:29:05.927Z,0.87
2022-11-10T05:32:11.812Z,1.30
2022-11-10T05:34:57.483Z,1.27
2022-11-10T05:38:04.321Z,1.30
2022-11-10T05:41:09.739Z,1.50
2022-11-10T05:44:15.319Z,0.93
2022-11-10T05:47:21.084Z,1.10
2022-11-10T05:50:27.415Z,1.73
2022-11-10T05:53:33.031Z,1.40
2022-11-10T05:56:38.030Z,1.50
2022-11-10T05:59:43.475Z,1.50
2022-11-10T06:02:48.792Z,2.57
2022-11-10T06:05:55.871Z,1.33
2022-11-10T06:09:01.509Z,0.80
2022-11-10T06:12:07.097Z,1.30
2022-11-10T06:15:12.439Z,1.23
2022-11-10T06:18:18.281Z,1.50
2022-11-10T06:21:23.836Z,1.30
2022-11-10T06:24:30.654Z,1.63
2022-11-10T06:27:36.053Z,1.33
2022-11-10T06:30:41.711Z,0.83
2022-11-10T06:33:47.364Z,1.47
2022-11-10T06:36:53.032Z,1.40
2022-11-10T06:39:58.783Z,1.73
2022-11-10T06:43:04.186Z,1.10
2022-11-10T06:46:09.631Z,0.90
2022-11-10T06:49:15.092Z,1.07
2022-11-10T06:52:20.748Z,1.10
2022-11-10T06:55:26.430Z,2.07
2022-11-10T06:58:32.175Z,2.30
2022-11-10T07:01:37.341Z,1.30
2022-11-10T07:04:42.978Z,1.77
2022-11-10T07:07:48.284Z,2.47
2022-11-10T07:10:55.222Z,1.57
2022-11-10T07:14:00.767Z,1.23
2022-11-10T07:17:06.014Z,1.40
2022-11-10T07:20:11.177Z,1.30
2022-11-10T07:23:21.324Z,1.30
2022-11-10T07:26:26.957Z,1.07
2022-11-10T07:29:32.654Z,2.70
2022-11-10T07:32:38.255Z,2.47
2022-11-10T07:35:43.749Z,2.60
2022-11-10T07:38:49.500Z,2.03
2022-11-10T07:41:54.908Z,2.30
2022-11-10T07:45:00.144Z,1.70
2022-11-10T07:48:05.735Z,1.20
2022-11-10T07:51:11.359Z,1.30
2022-11-10T07:54:16.744Z,1.13
2022-11-10T07:57:22.147Z,1.73
2022-11-10T08:00:28.483Z,1.30
2022-11-10T08:03:39.958Z,1.37
2022-11-10T08:06:45.781Z,1.37
2022-11-10T08:09:51.325Z,2.00
2022-11-10T08:12:57.543Z,1.57
2022-11-10T08:16:03.075Z,1.83
2022-11-10T08:19:08.611Z,1.70
2022-11-10T08:22:14.091Z,2.60
2022-11-10T08:25:19.777Z,1.73
2022-11-10T08:28:35.091Z,2.73
2022-11-10T08:31:40.726Z,2.60
2022-11-10T08:34:46.299Z,1.30
2022-11-10T08:37:52.053Z,1.60
2022-11-10T08:40:58.486Z,1.97
2022-11-10T08:44:06.165Z,1.67
2022-11-10T08:47:13.306Z,1.93
2022-11-10T08:50:19.035Z,1.70
2022-11-10T08:53:26.713Z,1.60
2022-11-10T08:56:32.294Z,2.27
2022-11-10T08:59:17.523Z,2.07
2022-11-10T09:02:23.099Z,2.50
2022-11-10T09:05:29.108Z,1.67
2022-11-10T09:08:35.814Z,2.50
2022-11-10T09:11:41.319Z,1.77
2022-11-10T09:14:46.693Z,2.00
2022-11-10T09:17:52.420Z,2.50
2022-11-10T09:20:58.720Z,1.90
2022-11-10T09:24:04.015Z,1.70
2022-11-10T09:27:09.706Z,2.10
2022-11-10T09:30:17.869Z,3.20
2022-11-10T09:33:24.332Z,1.73
2022-11-10T09:36:30.215Z,2.10
2022-11-10T09:39:35.873Z,2.60
2022-11-10T09:42:54.860Z,1.87
2022-11-10T09:46:03.967Z,2.27
2022-11-10T09:48:59.138Z,3.73
2022-11-10T09:51:48.429Z,1.83
2022-11-10T09:54:40.358Z,2.57
2022-11-10T09:57:27.315Z,1.87
2022-11-10T10:00:15.701Z,2.40
2022-11-10T10:03:06.269Z,2.40
2022-11-10T10:06:02.723Z,2.47
2022-11-10T10:09:04.116Z,2.37
2022-11-10T10:12:15.652Z,4.13
2022-11-10T10:15:09.812Z,2.90
2022-11-10T10:18:07.127Z,3.27
2022-11-10T10:21:12.895Z,2.43
2022-11-10T10:24:13.770Z,2.67
2022-11-10T10:27:06.290Z,1.80
2022-11-10T10:29:52.576Z,2.50
2022-11-10T10:32:38.690Z,2.27
2022-11-10T10:35:25.143Z,2.00
2022-11-10T10:38:33.687Z,2.30
2022-11-10T10:41:25.924Z,2.10
2022-11-10T10:44:19.684Z,3.63
2022-11-10T10:47:05.123Z,2.03
2022-11-10T10:49:50.490Z,1.93
2022-11-10T10:52:35.928Z,2.63
2022-11-10T10:55:27.587Z,3.23
2022-11-10T10:58:47.689Z,1.67
2022-11-10T11:01:57.362Z,3.47
2022-11-10T11:05:03.140Z,2.10
2022-11-10T11:08:20.295Z,2.43
2022-11-10T11:11:30.979Z,1.43
2022-11-10T11:14:46.401Z,2.10
2022-11-10T11:17:51.827Z,2.10
2022-11-10T11:21:08.182Z,1.73
2022-11-10T11:24:26.059Z,1.77
2022-11-10T11:27:38.760Z,1.53
2022-11-10T11:30:51.443Z,2.37
2022-11-10T11:34:13.216Z,2.47
2022-11-10T11:37:43.250Z,2.60
2022-11-10T11:41:30.113Z,2.63
2022-11-10T11:44:59.347Z,2.07
2022-11-10T11:48:39.672Z,2.37
2022-11-10T11:52:21.918Z,2.27
2022-11-10T11:56:04.171Z,3.03
2022-11-10T11:59:20.869Z,2.33
2022-11-10T12:02:18.532Z,2.77
2022-11-10T12:05:42.166Z,1.73
2022-11-10T12:09:01.451Z,2.40
2022-11-10T12:12:22.870Z,2.43
2022-11-10T12:16:06.792Z,1.90
2022-11-10T12:19:27.310Z,1.37
2022-11-10T12:22:46.260Z,2.00
2022-11-10T12:25:58.579Z,2.17
2022-11-10T12:29:21.100Z,1.37
2022-11-10T12:32:45.956Z,0.97
2022-11-10T12:35:59.695Z,2.03
2022-11-10T12:39:13.840Z,1.53
2022-11-10T12:42:20.288Z,1.43
2022-11-10T12:45:41.747Z,1.70
2022-11-10T12:48:58.695Z,2.10
2022-11-10T12:52:05.234Z,1.43
2022-11-10T12:55:11.471Z,1.93
2022-11-10T12:58:17.442Z,2.07
2022-11-10T13:01:27.243Z,2.03
2022-11-10T13:04:35.488Z,1.67
2022-11-10T13:07:44.751Z,2.23
2022-11-10T13:10:50.906Z,2.67
2022-11-10T13:14:11.771Z,2.90
2022-11-10T13:17:17.883Z,2.87
2022-11-10T13:20:31.309Z,2.83
2022-11-10T13:24:12.847Z,2.43
2022-11-10T13:27:45.662Z,4.50
2022-11-10T13:31:03.553Z,3.17
2022-11-10T13:34:39.930Z,2.07
2022-11-10T13:37:53.946Z,2.17
2022-11-10T13:40:59.475Z,2.50
2022-11-10T13:44:14.068Z,2.93
2022-11-10T13:47:28.751Z,3.13
2022-11-10T13:50:49.027Z,2.70
2022-11-10T13:54:12.986Z,1.50
2022-11-10T13:57:24.353Z,1.30
2022-11-10T14:00:38.419Z,3.23
2022-11-10T14:04:05.631Z,2.57
2022-11-10T14:07:16.759Z,2.73
2022-11-10T14:10:31.921Z,2.07
2022-11-10T14:13:44.643Z,1.93
2022-11-10T14:16:52.014Z,2.60
2022-11-10T14:20:03.844Z,2.07
2022-11-10T14:23:10.872Z,2.63
2022-11-10T14:26:22.084Z,3.37
2022-11-10T14:29:49.305Z,2.13
2022-11-10T14:32:55.835Z,2.43
2022-11-10T14:36:21.888Z,1.97
2022-11-10T14:39:27.869Z,2.03
2022-11-10T14:42:38.792Z,1.90
2022-11-10T14:45:49.023Z,1.57
2022-11-10T14:48:57.650Z,1.70
2022-11-10T14:52:03.247Z,2.63
2022-11-10T14:55:09.041Z,0.67
2022-11-10T14:58:25.749Z,1.07
2022-11-10T15:01:45.131Z,0.80
2022-11-10T15:04:53.193Z,0.40
2022-11-10T15:07:58.623Z,0.50
2022-11-10T15:11:09.643Z,0.43
2022-11-10T15:14:15.098Z,0.87
2022-11-10T15:17:29.519Z,0.50
2022-11-10T15:20:56.522Z,0.63
2022-11-10T15:24:03.418Z,2.10
2022-11-10T15:27:08.940Z,1.40
2022-11-10T15:30:17.579Z,1.00
2022-11-10T15:33:29.687Z,1.13
2022-11-10T15:36:43.224Z,1.77
2022-11-10T15:39:48.961Z,1.73
2022-11-10T15:42:54.591Z,1.30
2022-11-10T15:46:00.797Z,1.33
2022-11-10T15:49:09.775Z,0.90
2022-11-10T15:52:21.990Z,1.47
2022-11-10T15:55:39.749Z,1.67
2022-11-10T15:58:47.778Z,1.20
2022-11-10T16:01:53.436Z,1.37
2022-11-10T16:05:00.119Z,1.27
2022-11-10T16:08:05.783Z,1.30
2022-11-10T16:10:53.961Z,1.37
2022-11-10T16:13:39.981Z,1.20
2022-11-10T16:16:45.387Z,1.13
2022-11-10T16:19:50.960Z,1.10
2022-11-10T16:22:56.087Z,1.60
2022-11-10T16:26:01.988Z,0.80
2022-11-10T16:29:08.080Z,0.90
2022-11-10T16:32:14.184Z,0.93
2022-11-10T16:35:19.487Z,1.20
2022-11-10T16:38:37.732Z,1.00
2022-11-10T16:41:43.477Z,1.30
2022-11-10T16:44:48.867Z,0.97
2022-11-10T16:47:54.287Z,1.53
2022-11-10T16:51:00.089Z,0.90
2022-11-10T16:54:05.494Z,1.27
2022-11-10T16:57:10.877Z,1.27
2022-11-10T17:00:16.064Z,1.30
2022-11-10T17:03:21.957Z,1.13
2022-11-10T17:06:31.182Z,0.53
2022-11-10T17:09:40.845Z,0.70
2022-11-10T17:12:46.236Z,0.70
2022-11-10T17:15:52.033Z,1.00
2022-11-10T17:18:57.789Z,1.33
2022-11-10T17:22:03.708Z,1.50
2022-11-10T17:25:16.132Z,0.67
2022-11-10T17:28:22.210Z,2.03
2022-11-10T17:31:27.739Z,2.30
2022-11-10T17:34:33.775Z,1.30
2022-11-10T17:37:39.208Z,0.57
2022-11-10T17:40:46.762Z,1.13
2022-11-10T17:43:52.126Z,0.50
2022-11-10T17:46:57.767Z,0.73
2022-11-10T17:50:02.919Z,0.70
2022-11-10T17:53:09.233Z,0.70
2022-11-10T17:56:15.190Z,0.60
2022-11-10T17:59:20.936Z,0.67
2022-11-10T18:02:26.637Z,0.70
2022-11-10T18:05:37.243Z,0.60
2022-11-10T18:08:42.395Z,0.50
2022-11-10T18:11:48.056Z,0.53
2022-11-10T18:14:53.869Z,2.77
2022-11-10T18:18:01.029Z,0.33
2022-11-10T18:21:06.491Z,0.40
2022-11-10T18:24:12.411Z,2.03
2022-11-10T18:27:17.832Z,3.73
2022-11-10T18:30:25.084Z,5.00
2022-11-10T18:33:32.455Z,0.80
2022-11-10T18:36:38.184Z,0.30
2022-11-10T18:39:43.298Z,0.80
2022-11-10T18:42:49.386Z,1.43
2022-11-10T18:45:56.431Z,0.90
2022-11-10T18:49:02.225Z,1.17
2022-11-10T18:52:07.835Z,1.00
2022-11-10T18:55:14.842Z,0.90
2022-11-10T18:58:19.904Z,1.20
2022-11-10T19:01:27.352Z,1.13
2022-11-10T19:04:33.348Z,1.10
2022-11-10T19:07:39.318Z,1.10
2022-11-10T19:10:44.458Z,1.23
2022-11-10T19:13:50.370Z,1.13
2022-11-10T19:16:56.431Z,1.13
2022-11-10T19:20:02.168Z,1.67
2022-11-10T19:23:07.519Z,0.90
2022-11-10T19:26:23.188Z,2.13
2022-11-10T19:29:12.735Z,1.07
2022-11-10T19:31:58.322Z,1.33
2022-11-10T19:34:43.707Z,2.97
2022-11-10T19:37:34.215Z,2.07
2022-11-10T19:40:40.887Z,1.97
2022-11-10T19:43:47.706Z,1.57
2022-11-10T19:46:54.443Z,1.53
2022-11-10T19:50:00.540Z,1.93
2022-11-10T19:53:06.656Z,2.33
2022-11-10T19:56:12.013Z,1.50
2022-11-10T19:59:17.561Z,1.87
2022-11-10T20:02:23.218Z,1.37
2022-11-10T20:05:34.794Z,3.50
2022-11-10T20:08:40.437Z,1.57
2022-11-10T20:11:47.045Z,2.33
2022-11-10T20:14:52.695Z,2.60
2022-11-10T20:17:58.431Z,2.57
2022-11-10T20:21:04.249Z,2.57
2022-11-10T20:24:14.645Z,2.00
2022-11-10T20:27:20.171Z,2.17
2022-11-10T20:30:26.351Z,2.03
2022-11-10T20:33:32.333Z,1.67
2022-11-10T20:36:43.595Z,1.77
2022-11-10T20:39:49.227Z,1.97
2022-11-10T20:42:54.905Z,2.83
2022-11-10T20:46:00.702Z,2.83
2022-11-10T20:49:07.331Z,2.07
2022-11-10T20:52:12.972Z,2.73
2022-11-10T20:55:22.092Z,2.30
2022-11-10T20:58:36.404Z,1.80
2022-11-10T21:01:41.738Z,3.20
2022-11-10T21:04:47.706Z,1.70
2022-11-10T21:07:53.108Z,2.17
2022-11-10T21:10:38.882Z,2.40
2022-11-10T21:13:45.316Z,1.77
2022-11-10T21:16:31.044Z,2.53
2022-11-10T21:19:16.587Z,2.03
2022-11-10T21:22:02.383Z,1.87
2022-11-10T21:24:48.000Z,2.07
2022-11-10T21:27:33.364Z,2.20
2022-11-10T21:30:22.949Z,3.67
2022-11-10T21:33:08.755Z,2.47
2022-11-10T21:35:54.210Z,4.00
2022-11-10T21:38:39.832Z,3.50
2022-11-10T21:41:26.320Z,4.23
2022-11-10T21:44:11.883Z,3.73
2022-11-10T21:46:57.228Z,2.83
2022-11-10T21:50:02.772Z,3.17
2022-11-10T21:53:08.615Z,3.17
2022-11-10T21:56:21.562Z,3.13
2022-11-10T21:59:26.785Z,3.50
2022-11-10T22:02:32.271Z,3.70
2022-11-10T22:05:37.555Z,2.23
2022-11-10T22:08:43.168Z,3.00
2022-11-10T22:11:46.498Z,2.87
2022-11-10T22:14:50.907Z,3.47
2022-11-10T22:17:54.347Z,3.90
2022-11-10T22:21:00.033Z,3.30
2022-11-10T22:24:03.498Z,3.17
2022-11-10T22:27:10.216Z,4.27
2022-11-10T22:30:15.394Z,4.17
2022-11-10T22:33:21.190Z,3.93
2022-11-10T22:36:31.073Z,5.17
2022-11-10T22:39:37.550Z,5.03
2022-11-10T22:42:41.463Z,5.47
2022-11-10T22:45:46.989Z,4.53
2022-11-10T22:48:52.967Z,3.90
2022-11-10T22:51:58.915Z,3.27
2022-11-10T22:55:04.355Z,6.70
2022-11-10T22:58:12.155Z,5.03
2022-11-10T23:01:25.817Z,4.93
2022-11-10T23:04:31.797Z,5.47
2022-11-10T23:07:37.347Z,5.93
2022-11-10T23:10:43.206Z,4.83
2022-11-10T23:13:48.976Z,3.50
2022-11-10T23:16:54.983Z,4.57
2022-11-10T23:20:00.220Z,3.83
2022-11-10T23:23:05.961Z,2.90
2022-11-10T23:26:21.824Z,5.47
2022-11-10T23:29:27.475Z,4.20
2022-11-10T23:32:32.549Z,3.97
2022-11-10T23:35:38.247Z,3.87
2022-11-10T23:38:43.435Z,2.30
2022-11-10T23:41:49.265Z,4.00
2022-11-10T23:44:54.597Z,2.70
2022-11-10T23:48:05.685Z,3.63
2022-11-10T23:51:12.627Z,6.20
2022-11-10T23:54:18.633Z,5.47
2022-11-10T23:57:24.145Z,4.47
